Time;durP1;ratioP1;P1;durP2;ratioP2;P2;SDS_P1;SDS_P2;PMS_P1;PMS_P2;Temp;Humidity;BMP_temperature;BMP_pressure;BME280_temperature;BME280_humidity;BME280_pressure;Samples;Min_cycle;Max_cycle;Signal;HPM_P1;HPM_P2
2021/05/04 00:00:19;;;;;;;6.78;6.18;;;5.10;94.60;;;;;;6280427;28;20040;-77
2021/05/04 00:03:21;;;;;;;4.23;3.93;;;5.20;94.60;;;;;;6280753;28;20064;-77
2021/05/04 00:06:22;;;;;;;5.35;4.32;;;5.20;94.50;;;;;;6254386;28;20179;-76
2021/05/04 00:09:24;;;;;;;5.88;4.65;;;5.30;94.40;;;;;;6250236;28;20526;-76
2021/05/04 00:12:26;;;;;;;4.90;4.40;;;5.30;94.30;;;;;;6250634;28;20410;-76
2021/05/04 00:15:27;;;;;;;4.95;4.13;;;5.40;94.20;;;;;;6250141;28;20096;-77
2021/05/04 00:18:29;;;;;;;3.78;3.47;;;5.50;93.60;;;;;;6250165;28;20056;-78
2021/05/04 00:21:30;;;;;;;4.20;3.08;;;5.70;92.80;;;;;;6250160;28;20137;-77
2021/05/04 00:24:32;;;;;;;3.55;3.28;;;6.00;91.70;;;;;;6250272;28;20119;-77
2021/05/04 00:27:34;;;;;;;3.30;3.05;;;6.20;90.60;;;;;;6248295;28;20102;-77
2021/05/04 00:30:35;;;;;;;3.58;3.10;;;6.40;89.40;;;;;;6250540;28;20176;-77
2021/05/04 00:33:36;;;;;;;8.32;2.95;;;6.70;87.40;;;;;;6249931;28;20140;-77
2021/05/04 00:36:38;;;;;;;3.47;3.17;;;6.90;84.50;;;;;;6249601;28;20063;-77
2021/05/04 00:39:39;;;;;;;3.55;2.47;;;7.20;81.80;;;;;;6249633;28;20135;-77
2021/05/04 00:42:41;;;;;;;2.25;2.05;;;7.40;80.20;;;;;;6249452;28;20471;-77
2021/05/04 00:45:43;;;;;;;4.47;2.85;;;7.60;78.60;;;;;;6249598;28;20050;-77
2021/05/04 00:48:44;;;;;;;3.03;2.72;;;7.70;77.70;;;;;;6248736;28;20575;-77
2021/05/04 00:51:46;;;;;;;2.45;2.25;;;7.80;76.60;;;;;;6249560;28;20103;-77
2021/05/04 00:54:48;;;;;;;3.38;2.60;;;7.90;75.40;;;;;;6250251;28;20532;-77
2021/05/04 00:57:51;;;;;;;2.83;2.53;;;8.00;74.50;;;;;;6249235;28;20468;-77
2021/05/04 01:00:53;;;;;;;3.25;2.95;;;8.00;73.70;;;;;;6248914;28;20065;-77
2021/05/04 01:03:55;;;;;;;3.72;3.20;;;8.10;73.60;;;;;;6248474;28;20576;-77
2021/05/04 01:06:56;;;;;;;2.70;2.47;;;8.10;72.70;;;;;;6249279;28;20136;-77
2021/05/04 01:09:58;;;;;;;3.20;2.25;;;8.20;72.10;;;;;;6248433;28;20077;-77
2021/05/04 01:13:00;;;;;;;2.85;2.55;;;8.30;71.00;;;;;;6248443;28;20125;-77
2021/05/04 01:16:02;;;;;;;6.03;2.60;;;8.40;70.40;;;;;;6248392;28;20413;-77
2021/05/04 01:19:03;;;;;;;4.68;4.25;;;8.50;69.50;;;;;;6248509;28;20085;-77
2021/05/04 01:22:05;;;;;;;2.25;2.00;;;8.60;68.90;;;;;;6247904;28;20065;-77
2021/05/04 01:25:09;;;;;;;2.38;2.17;;;8.70;68.00;;;;;;6247997;28;20136;-77
2021/05/04 01:28:10;;;;;;;3.08;2.47;;;8.80;66.90;;;;;;6247730;28;20121;-77
2021/05/04 01:31:11;;;;;;;2.88;2.58;;;8.80;66.20;;;;;;6248456;28;20088;-77
2021/05/04 01:34:13;;;;;;;3.30;1.98;;;8.90;65.40;;;;;;6247551;28;20073;-77
2021/05/04 01:37:15;;;;;;;2.67;2.42;;;9.00;65.40;;;;;;6247860;28;20049;-77
2021/05/04 01:40:17;;;;;;;5.43;2.00;;;9.10;64.10;;;;;;6247644;28;20065;-77
2021/05/04 01:43:19;;;;;;;4.05;2.63;;;9.10;63.40;;;;;;6248310;28;20136;-77
2021/05/04 01:46:20;;;;;;;2.30;2.10;;;9.30;62.40;;;;;;6247323;28;20482;-77
2021/05/04 01:49:21;;;;;;;3.47;2.17;;;9.40;61.80;;;;;;6248129;28;20063;-78
2021/05/04 01:52:23;;;;;;;3.22;2.40;;;9.50;60.80;;;;;;6249080;28;20448;-77
2021/05/04 01:55:25;;;;;;;11.40;3.45;;;9.60;60.30;;;;;;6249914;28;20514;-77
2021/05/04 01:58:26;;;;;;;4.30;3.28;;;9.70;59.90;;;;;;6247942;28;20131;-77
2021/05/04 02:01:27;;;;;;;5.72;2.92;;;9.80;59.30;;;;;;6248065;28;20048;-77
2021/05/04 02:04:31;;;;;;;2.67;2.08;;;9.90;58.80;;;;;;6248491;28;20179;-77
2021/05/04 02:07:33;;;;;;;3.13;2.05;;;10.10;57.90;;;;;;6248809;28;20088;-77
2021/05/04 02:10:34;;;;;;;3.00;2.13;;;10.20;57.30;;;;;;6247524;28;20132;-77
2021/05/04 02:13:35;;;;;;;2.47;1.80;;;10.40;57.10;;;;;;6247802;28;20073;-77
2021/05/04 02:16:37;;;;;;;2.38;2.17;;;10.50;56.40;;;;;;6246658;28;20491;-77
2021/05/04 02:19:38;;;;;;;5.97;5.43;;;10.50;56.40;;;;;;6246949;28;20513;-77
2021/05/04 02:22:40;;;;;;;3.15;2.15;;;10.60;55.90;;;;;;6246786;28;20073;-77
2021/05/04 02:25:42;;;;;;;3.95;2.30;;;10.70;56.00;;;;;;6250990;28;20515;-77
2021/05/04 02:28:43;;;;;;;2.72;2.20;;;10.70;55.80;;;;;;6251556;28;20559;-77
2021/05/04 02:31:45;;;;;;;1.85;1.45;;;10.80;55.40;;;;;;6251815;28;20077;-77
2021/05/04 02:34:46;;;;;;;2.00;1.90;;;10.80;55.80;;;;;;6251882;28;20103;-77
2021/05/04 02:37:49;;;;;;;2.75;2.35;;;10.90;55.20;;;;;;6251673;28;20105;-77
2021/05/04 02:40:50;;;;;;;3.00;2.22;;;10.90;55.30;;;;;;6251346;28;20120;-77
2021/05/04 02:43:51;;;;;;;2.13;2.00;;;11.00;54.90;;;;;;6252350;28;20077;-77
2021/05/04 02:46:53;;;;;;;1.55;1.45;;;11.10;54.90;;;;;;6251894;28;20148;-77
2021/05/04 02:49:54;;;;;;;2.70;2.10;;;11.10;54.60;;;;;;6251334;28;20127;-77
2021/05/04 02:52:57;;;;;;;2.17;1.80;;;11.10;54.40;;;;;;6260797;28;20065;-77
2021/05/04 02:55:58;;;;;;;4.10;2.92;;;11.20;54.60;;;;;;6256094;28;20483;-76
2021/05/04 02:58:59;;;;;;;4.32;2.45;;;11.30;54.30;;;;;;6251813;28;20137;-77
2021/05/04 03:02:00;;;;;;;3.22;2.03;;;11.30;54.10;;;;;;6243217;28;20111;-77
2021/05/04 03:05:02;;;;;;;3.03;2.10;;;11.40;53.70;;;;;;6250430;28;20107;-77
2021/05/04 03:08:05;;;;;;;2.45;2.00;;;11.50;53.70;;;;;;6250929;28;20479;-77
2021/05/04 03:11:06;;;;;;;2.05;1.90;;;11.50;53.80;;;;;;6251235;28;20087;-77
2021/05/04 03:14:07;;;;;;;3.25;2.28;;;11.50;53.80;;;;;;6250833;28;20073;-76
2021/05/04 03:17:09;;;;;;;2.25;2.05;;;11.50;53.60;;;;;;6250666;28;20133;-77
2021/05/04 03:20:11;;;;;;;2.72;2.47;;;11.60;53.80;;;;;;6250432;28;20121;-77
2021/05/04 03:23:14;;;;;;;2.70;2.35;;;11.50;53.40;;;;;;6251328;28;20498;-77
2021/05/04 03:26:15;;;;;;;3.35;2.00;;;11.60;53.70;;;;;;6250154;28;20410;-77
2021/05/04 03:29:16;;;;;;;2.17;1.98;;;11.60;53.60;;;;;;6250286;28;20079;-77
2021/05/04 03:32:18;;;;;;;2.38;2.17;;;11.60;53.70;;;;;;6252042;28;20129;-78
2021/05/04 03:35:19;;;;;;;2.78;2.05;;;11.60;53.70;;;;;;6253990;28;20077;-78
2021/05/04 03:38:21;;;;;;;2.47;2.28;;;11.60;53.50;;;;;;6254122;28;20140;-78
2021/05/04 03:41:23;;;;;;;2.90;2.60;;;11.70;53.60;;;;;;6253106;28;20068;-78
2021/05/04 03:44:24;;;;;;;2.78;1.92;;;11.70;53.70;;;;;;6252688;28;20124;-78
2021/05/04 03:47:25;;;;;;;2.78;2.33;;;11.70;53.80;;;;;;6253033;28;20176;-78
2021/05/04 03:50:28;;;;;;;2.80;2.15;;;11.70;53.60;;;;;;6253006;28;20127;-77
2021/05/04 03:53:31;;;;;;;4.25;2.13;;;11.70;53.50;;;;;;6251518;28;20068;-78
2021/05/04 03:56:33;;;;;;;2.80;2.20;;;11.80;52.90;;;;;;6250755;28;20049;-77
2021/05/04 03:59:34;;;;;;;2.85;2.58;;;11.80;53.20;;;;;;6250857;28;20550;-78
2021/05/04 04:02:35;;;;;;;2.20;2.00;;;11.90;53.10;;;;;;6252673;28;20045;-78
2021/05/04 04:05:37;;;;;;;3.45;2.70;;;11.90;53.00;;;;;;6252022;28;20132;-77
2021/05/04 04:08:39;;;;;;;3.55;1.95;;;11.90;52.90;;;;;;6251785;28;20041;-78
2021/05/04 04:11:40;;;;;;;2.35;1.92;;;12.00;52.30;;;;;;6252346;28;20192;-77
2021/05/04 04:14:42;;;;;;;1.95;1.85;;;12.00;52.60;;;;;;6251506;28;20093;-78
2021/05/04 04:17:43;;;;;;;2.33;2.10;;;12.10;52.70;;;;;;6250708;28;20069;-78
2021/05/04 04:20:44;;;;;;;5.15;2.85;;;12.10;52.50;;;;;;6250783;28;20052;-77
2021/05/04 04:23:46;;;;;;;3.05;2.75;;;12.20;52.50;;;;;;6251904;28;20388;-78
2021/05/04 04:26:48;;;;;;;3.47;3.15;;;12.20;52.30;;;;;;6251966;28;20080;-78
2021/05/04 04:29:49;;;;;;;4.85;2.15;;;12.30;52.00;;;;;;6250388;28;20160;-78
2021/05/04 04:32:51;;;;;;;2.90;2.42;;;12.30;51.80;;;;;;6251685;28;20447;-78
2021/05/04 04:35:53;;;;;;;2.55;1.92;;;12.40;51.60;;;;;;6252125;28;20050;-79
2021/05/04 04:38:55;;;;;;;5.47;2.03;;;12.50;51.80;;;;;;6252640;28;20049;-78
2021/05/04 04:41:56;;;;;;;2.55;2.35;;;12.50;51.20;;;;;;6251503;28;20048;-78
2021/05/04 04:44:57;;;;;;;2.75;2.03;;;12.60;51.40;;;;;;6250812;28;20079;-78
2021/05/04 04:47:59;;;;;;;4.63;2.30;;;12.60;51.10;;;;;;6250209;28;20084;-78
2021/05/04 04:51:00;;;;;;;3.85;2.00;;;12.70;51.00;;;;;;6250270;28;20128;-79
2021/05/04 04:54:03;;;;;;;3.28;2.45;;;12.70;51.00;;;;;;6251153;28;20042;-79
2021/05/04 04:57:05;;;;;;;1.75;1.65;;;12.70;50.60;;;;;;6251532;28;20136;-78
2021/05/04 05:00:08;;;;;;;2.15;2.00;;;12.90;50.40;;;;;;6250511;28;20052;-78
2021/05/04 05:03:09;;;;;;;2.78;2.58;;;13.00;50.10;;;;;;6250450;28;20053;-78
2021/05/04 05:06:11;;;;;;;1.80;1.70;;;13.10;49.80;;;;;;6248953;28;20075;-78
2021/05/04 05:09:13;;;;;;;1.83;1.73;;;13.10;49.70;;;;;;6248408;28;20041;-78
2021/05/04 05:12:14;;;;;;;3.45;2.40;;;13.10;49.80;;;;;;6250295;28;20049;-78
2021/05/04 05:15:15;;;;;;;2.35;2.15;;;13.10;49.70;;;;;;6250306;28;20072;-78
2021/05/04 05:18:17;;;;;;;2.95;2.28;;;13.10;49.40;;;;;;6249423;28;20050;-78
2021/05/04 05:21:19;;;;;;;3.75;1.83;;;13.10;49.60;;;;;;6249893;28;20513;-78
2021/05/04 05:24:21;;;;;;;3.00;2.30;;;13.20;49.30;;;;;;6248921;28;20564;-79
2021/05/04 05:27:23;;;;;;;3.40;1.92;;;13.30;49.10;;;;;;6253070;28;20180;-79
2021/05/04 05:30:24;;;;;;;2.38;1.95;;;13.40;48.90;;;;;;6252635;28;20072;-79
2021/05/04 05:33:26;;;;;;;6.47;2.22;;;13.50;48.40;;;;;;6250492;28;20111;-79
2021/05/04 05:36:27;;;;;;;2.15;1.95;;;13.60;48.20;;;;;;6251326;28;20120;-79
2021/05/04 05:39:30;;;;;;;2.10;1.90;;;13.80;47.80;;;;;;6252113;28;20045;-79
2021/05/04 05:42:31;;;;;;;4.72;2.63;;;14.00;47.30;;;;;;6251847;28;20124;-78
2021/05/04 05:45:33;;;;;;;3.20;1.45;;;;;;;;;;6252815;28;20073;-79
2021/05/04 05:48:34;;;;;;;4.60;1.80;;;14.50;45.70;;;;;;6251552;28;20037;-78
2021/05/04 05:51:35;;;;;;;4.40;2.67;;;14.70;45.50;;;;;;6252301;28;20085;-79
2021/05/04 05:54:37;;;;;;;5.20;2.38;;;15.00;45.10;;;;;;6253540;28;20050;-79
2021/05/04 05:57:39;;;;;;;2.85;2.33;;;15.30;44.50;;;;;;6252876;28;20069;-80
2021/05/04 06:00:41;;;;;;;3.58;1.77;;;15.60;44.70;;;;;;6253995;28;20037;-79
2021/05/04 06:03:42;;;;;;;4.30;2.00;;;15.90;43.70;;;;;;6255639;28;20050;-78
2021/05/04 06:06:43;;;;;;;4.63;1.42;;;16.10;42.70;;;;;;6232116;28;20046;-78
2021/05/04 06:09:45;;;;;;;12.10;2.67;;;16.30;42.20;;;;;;6229734;28;20084;-78
2021/05/04 06:12:56;;;;;;;2.35;1.85;;;16.40;42.20;;;;;;6229225;28;20097;-79
2021/05/04 06:15:57;;;;;;;3.53;2.40;;;16.40;42.30;;;;;;6227888;28;20128;-78
2021/05/04 06:18:59;;;;;;;3.55;2.13;;;16.40;42.50;;;;;;6222520;28;20084;-77
2021/05/04 06:22:00;;;;;;;5.63;2.15;;;16.50;42.00;;;;;;6236737;28;20528;-77
2021/05/04 06:25:02;;;;;;;7.13;2.20;;;16.50;42.00;;;;;;6272074;28;20119;-78
2021/05/04 06:28:06;;;;;;;6.75;1.48;;;16.70;41.60;;;;;;6271475;28;20566;-77
2021/05/04 06:31:07;;;;;;;2.35;2.05;;;16.80;40.50;;;;;;6271778;28;20045;-76
2021/05/04 06:34:11;;;;;;;5.55;1.80;;;16.70;40.90;;;;;;6271539;28;20098;-78
2021/05/04 06:37:12;;;;;;;4.32;1.98;;;16.70;41.30;;;;;;6271805;28;20136;-78
2021/05/04 06:40:15;;;;;;;6.80;1.98;;;16.50;40.70;;;;;;6257102;28;20139;-78
2021/05/04 06:43:17;;;;;;;3.92;2.38;;;;;;;;;;6248957;28;20137;-77
2021/05/04 06:46:19;;;;;;;7.65;2.13;;;16.50;40.60;;;;;;6253908;28;20072;-78
2021/05/04 06:49:20;;;;;;;4.53;3.30;;;16.70;41.10;;;;;;6253789;28;20049;-78
2021/05/04 06:52:21;;;;;;;9.63;2.75;;;;;;;;;;6252720;28;20120;-78
2021/05/04 06:55:24;;;;;;;12.77;7.03;;;17.30;39.40;;;;;;6255328;28;20526;-78
2021/05/04 06:58:25;;;;;;;5.22;2.40;;;17.60;39.50;;;;;;6253251;28;20068;-77
2021/05/04 07:01:26;;;;;;;4.05;1.85;;;17.90;38.80;;;;;;6253905;28;20317;-78
2021/05/04 07:04:28;;;;;;;4.60;1.85;;;18.10;38.80;;;;;;6252105;28;20041;-79
2021/05/04 07:07:29;;;;;;;6.45;1.52;;;18.20;38.70;;;;;;6250545;28;20594;-78
2021/05/04 07:10:31;;;;;;;4.53;2.10;;;18.30;38.40;;;;;;6249797;28;20101;-78
2021/05/04 07:13:33;;;;;;;2.38;2.13;;;18.40;37.90;;;;;;6250928;28;20052;-78
2021/05/04 07:16:35;;;;;;;5.03;1.40;;;18.50;37.80;;;;;;6251881;28;20069;-78
2021/05/04 07:19:38;;;;;;;4.43;1.70;;;18.60;37.80;;;;;;6252655;28;20053;-78
2021/05/04 07:22:40;;;;;;;5.25;1.52;;;18.40;37.80;;;;;;6253042;28;20045;-78
2021/05/04 07:25:42;;;;;;;6.68;2.13;;;18.30;38.50;;;;;;6250989;28;20045;-78
2021/05/04 07:28:44;;;;;;;2.42;2.22;;;18.00;39.40;;;;;;6250518;28;20464;-78
2021/05/04 07:31:45;;;;;;;9.63;2.25;;;17.60;40.00;;;;;;6252133;28;20092;-78
2021/05/04 07:34:47;;;;;;;3.90;1.77;;;;;;;;;;6251492;28;20162;-78
2021/05/04 07:37:48;;;;;;;5.72;1.77;;;17.10;40.30;;;;;;6252472;28;20138;-78
2021/05/04 07:40:51;;;;;;;4.38;1.98;;;17.00;41.30;;;;;;6252601;28;20101;-78
2021/05/04 07:43:53;;;;;;;2.70;1.85;;;17.00;41.20;;;;;;6253782;28;20049;-78
2021/05/04 07:46:54;;;;;;;2.78;2.22;;;17.40;41.00;;;;;;6253741;28;20069;-78
2021/05/04 07:49:56;;;;;;;3.95;1.70;;;17.60;40.20;;;;;;6251735;28;20100;-78
2021/05/04 07:52:57;;;;;;;7.28;1.73;;;17.60;40.20;;;;;;6251978;28;20076;-78
2021/05/04 07:56:00;;;;;;;3.45;1.70;;;17.70;45.30;;;;;;6252668;28;20056;-79
2021/05/04 07:59:01;;;;;;;2.45;1.60;;;17.80;42.00;;;;;;6253396;28;20129;-77
2021/05/04 08:02:02;;;;;;;3.58;1.80;;;17.80;39.70;;;;;;6252015;28;20037;-78
2021/05/04 08:05:05;;;;;;;4.00;1.90;;;18.10;39.20;;;;;;6251605;28;20049;-78
2021/05/04 08:08:06;;;;;;;3.72;1.40;;;18.50;38.60;;;;;;6251630;28;20045;-78
2021/05/04 08:11:08;;;;;;;3.10;1.48;;;19.00;42.50;;;;;;6251603;28;20556;-78
2021/05/04 08:14:10;;;;;;;2.00;1.58;;;18.90;38.00;;;;;;6250825;28;20134;-78
2021/05/04 08:17:14;;;;;;;1.77;1.67;;;19.00;37.90;;;;;;6251685;28;20045;-78
2021/05/04 08:20:16;;;;;;;4.75;1.88;;;;;;;;;;6250265;28;20060;-78
2021/05/04 08:23:18;;;;;;;2.28;1.58;;;19.20;37.00;;;;;;6251355;28;20052;-78
2021/05/04 08:26:20;;;;;;;4.40;2.25;;;19.00;38.00;;;;;;6250325;28;20475;-77
2021/05/04 08:29:21;;;;;;;1.40;1.30;;;18.80;37.90;;;;;;6248693;28;20056;-77
2021/05/04 08:32:23;;;;;;;8.10;1.50;;;18.90;38.20;;;;;;6250377;28;20128;-77
2021/05/04 08:35:25;;;;;;;2.85;1.77;;;19.20;38.00;;;;;;6249784;28;20081;-77
2021/05/04 08:38:26;;;;;;;2.42;1.60;;;19.50;37.50;;;;;;6248823;28;20049;-77
2021/05/04 08:41:29;;;;;;;5.03;2.50;;;19.80;37.40;;;;;;6248354;28;20104;-76
2021/05/04 08:44:31;;;;;;;6.30;2.30;;;;;;;;;;6248456;28;20045;-76
2021/05/04 08:47:33;;;;;;;2.65;2.13;;;19.90;36.00;;;;;;6248772;28;20450;-76
2021/05/04 08:50:38;;;;;;;3.85;1.70;;;19.80;36.80;;;;;;6248207;28;20073;-77
2021/05/04 08:53:40;;;;;;;5.95;2.70;;;19.80;37.00;;;;;;6248415;28;20073;-78
2021/05/04 08:56:42;;;;;;;4.68;1.85;;;19.90;36.70;;;;;;6248282;28;20171;-77
2021/05/04 08:59:44;;;;;;;3.72;2.00;;;19.90;36.60;;;;;;6247598;28;20458;-76
2021/05/04 09:03:04;;;;;;;2.72;1.55;;;20.00;37.00;;;;;;6249298;28;20510;-78
2021/05/04 09:06:09;;;;;;;3.42;2.45;;;20.10;36.20;;;;;;6250832;28;20049;-78
2021/05/04 09:09:17;;;;;;;3.08;1.45;;;20.00;35.40;;;;;;6250215;28;20046;-77
2021/05/04 09:12:31;;;;;;;4.15;2.30;;;19.80;37.20;;;;;;6249235;28;20042;-78
2021/05/04 09:15:47;;;;;;;1.77;1.67;;;19.60;36.00;;;;;;6273876;22;20049;-77
2021/05/04 09:22:04;;;;;;;1.58;1.48;;;19.90;36.10;;;;;;6272006;28;20037;-77
2021/05/04 09:25:07;;;;;;;2.63;1.77;;;19.70;35.60;;;;;;6271695;28;20045;-76
2021/05/04 09:28:12;;;;;;;2.47;1.50;;;19.50;36.90;;;;;;6271942;28;20120;-78
2021/05/04 09:31:21;;;;;;;5.10;1.60;;;19.30;36.90;;;;;;6272724;28;20049;-77
2021/05/04 09:34:22;;;;;;;4.22;1.60;;;19.20;37.90;;;;;;6271316;28;20170;-77
2021/05/04 09:37:38;;;;;;;3.58;1.38;;;19.00;37.60;;;;;;6272136;28;20057;-76
2021/05/04 09:40:41;;;;;;;2.00;1.80;;;19.00;38.30;;;;;;6271385;28;20052;-75
2021/05/04 09:43:43;;;;;;;5.40;1.45;;;19.00;37.90;;;;;;6271790;28;20053;-77
2021/05/04 09:46:49;;;;;;;1.98;1.60;;;19.10;37.50;;;;;;6271842;28;20132;-77
2021/05/04 09:49:50;;;;;;;3.72;1.40;;;19.00;35.80;;;;;;6270958;28;20132;-72
2021/05/04 09:53:06;;;;;;;3.60;1.50;;;;;;;;;;6271412;28;20171;-74
2021/05/04 09:56:08;;;;;;;4.80;1.85;;;19.00;36.10;;;;;;6271129;28;20068;-73
2021/05/04 09:59:11;;;;;;;2.33;1.48;;;18.80;36.00;;;;;;6271863;28;20139;-73
2021/05/04 10:02:12;;;;;;;3.97;2.25;;;18.60;33.80;;;;;;6270980;28;20064;-74
2021/05/04 10:05:18;;;;;;;1.60;1.20;;;18.50;34.50;;;;;;6270829;28;20132;-74
2021/05/04 10:08:19;;;;;;;3.33;1.30;;;18.50;33.90;;;;;;6271113;28;20182;-73
2021/05/04 10:11:22;;;;;;;4.75;1.08;;;18.70;34.00;;;;;;6271119;28;20055;-73
2021/05/04 10:14:24;;;;;;;4.15;1.70;;;18.90;33.10;;;;;;6268771;28;20091;-73
2021/05/04 10:17:26;;;;;;;2.35;1.00;;;18.90;33.10;;;;;;6252277;28;20124;-73
2021/05/04 10:20:28;;;;;;;7.88;2.75;;;;;;;;;;6270831;28;20052;-73
2021/05/04 10:23:31;;;;;;;2.05;1.38;;;18.70;32.60;;;;;;6271009;28;20049;-73
2021/05/04 10:26:33;;;;;;;3.92;2.17;;;18.60;33.60;;;;;;6271161;28;20132;-72
2021/05/04 10:29:37;;;;;;;2.47;1.80;;;18.60;33.70;;;;;;6270093;28;20052;-74
2021/05/04 10:32:52;;;;;;;2.33;1.35;;;18.40;33.40;;;;;;6270777;28;20045;-75
2021/05/04 10:35:54;;;;;;;2.47;1.27;;;18.20;34.10;;;;;;6270486;28;20522;-73
2021/05/04 10:38:56;;;;;;;5.55;1.38;;;17.90;34.30;;;;;;6270571;28;20049;-73
2021/05/04 10:41:58;;;;;;;1.17;1.08;;;17.70;36.10;;;;;;6270281;28;20075;-73
2021/05/04 10:45:11;;;;;;;3.65;1.05;;;17.50;35.90;;;;;;6271007;28;20051;-73
2021/05/04 10:48:13;;;;;;;8.32;2.75;;;17.30;38.30;;;;;;6275046;28;20045;-74
2021/05/04 10:51:16;;;;;;;1.85;1.13;;;17.00;40.50;;;;;;6275506;28;20144;-72
2021/05/04 10:54:18;;;;;;;5.10;1.20;;;16.60;44.00;;;;;;6275253;28;20056;-74
2021/05/04 10:57:20;;;;;;;1.48;0.93;;;16.30;45.70;;;;;;6274913;28;20095;-74
2021/05/04 11:00:52;;;;;;;4.35;1.40;;;16.10;48.40;;;;;;6274948;28;20057;-74
2021/05/04 11:03:55;;;;;;;2.42;1.50;;;15.90;50.50;;;;;;6275117;28;20063;-74
2021/05/04 11:06:57;;;;;;;1.65;1.55;;;15.50;52.40;;;;;;6279294;28;20049;-74
2021/05/04 11:10:10;;;;;;;1.98;1.30;;;15.20;55.80;;;;;;6275501;28;20102;-75
2021/05/04 11:13:41;;;;;;;4.38;1.80;;;14.80;57.30;;;;;;6274604;28;20164;-74
2021/05/04 11:16:45;;;;;;;2.38;1.83;;;14.60;58.70;;;;;;6263649;28;20041;-74
2021/05/04 11:19:46;;;;;;;1.95;1.83;;;14.40;59.30;;;;;;6249390;28;20095;-74
2021/05/04 11:22:48;;;;;;;3.63;1.98;;;14.30;61.10;;;;;;6250426;28;20106;-75
2021/05/04 11:25:49;;;;;;;1.67;1.20;;;14.20;61.60;;;;;;6249478;28;20188;-74
2021/05/04 11:29:09;;;;;;;4.18;2.33;;;14.10;61.50;;;;;;6249538;28;20049;-74
2021/05/04 11:32:13;;;;;;;4.47;1.67;;;14.10;61.00;;;;;;6249336;28;20071;-73
2021/05/04 11:35:15;;;;;;;11.30;3.13;;;14.10;60.50;;;;;;6250331;28;20077;-74
2021/05/04 11:38:22;;;;;;;3.60;1.92;;;14.10;59.90;;;;;;6249587;28;20052;-74
2021/05/04 11:41:23;;;;;;;2.03;1.92;;;14.10;59.60;;;;;;6249914;28;20057;-73
2021/05/04 11:44:26;;;;;;;2.22;2.03;;;14.10;59.70;;;;;;6249462;28;20175;-74
2021/05/04 11:47:29;;;;;;;4.63;3.63;;;14.20;58.90;;;;;;6250165;28;20057;-73
2021/05/04 11:50:31;;;;;;;11.00;3.38;;;14.20;58.10;;;;;;6248749;28;20148;-74
2021/05/04 11:53:32;;;;;;;2.63;2.20;;;14.20;57.90;;;;;;6249281;28;20132;-74
2021/05/04 11:56:34;;;;;;;4.07;3.70;;;14.30;58.60;;;;;;6247888;28;20069;-75
2021/05/04 11:59:35;;;;;;;2.90;2.60;;;14.40;57.10;;;;;;6249051;28;20388;-74
2021/05/04 12:02:38;;;;;;;8.07;5.43;;;14.40;57.50;;;;;;6248824;28;20049;-75
2021/05/04 12:05:41;;;;;;;4.03;2.20;;;14.60;55.50;;;;;;6248475;28;20080;-75
2021/05/04 12:08:42;;;;;;;3.95;2.42;;;14.70;55.50;;;;;;6248543;28;20580;-75
2021/05/04 12:11:43;;;;;;;5.53;1.90;;;14.80;55.20;;;;;;6247715;28;20049;-74
2021/05/04 12:15:02;;;;;;;1.98;1.20;;;14.90;54.60;;;;;;6268763;28;20076;-74
2021/05/04 12:18:07;;;;;;;4.00;1.63;;;15.10;53.80;;;;;;6258119;28;20045;-74
2021/05/04 12:21:10;;;;;;;2.30;1.55;;;15.20;53.80;;;;;;6246651;28;20457;-74
2021/05/04 12:24:12;;;;;;;1.70;1.20;;;15.30;54.00;;;;;;6247701;28;20572;-74
2021/05/04 12:27:14;;;;;;;2.33;1.80;;;15.30;53.70;;;;;;6248895;28;20088;-73
2021/05/04 12:30:20;;;;;;;3.47;1.70;;;15.40;53.20;;;;;;6247572;28;20211;-74
2021/05/04 12:33:22;;;;;;;8.77;1.27;;;15.40;53.00;;;;;;6248404;28;20132;-73
2021/05/04 12:36:35;;;;;;;2.17;1.60;;;15.20;52.90;;;;;;6249096;28;20076;-73
2021/05/04 12:39:38;;;;;;;2.08;1.45;;;15.10;53.40;;;;;;6248490;28;20049;-73
2021/05/04 12:42:39;;;;;;;1.95;0.90;;;15.10;53.00;;;;;;6247828;28;20132;-74
2021/05/04 12:46:00;;;;;;;1.33;1.10;;;15.20;53.30;;;;;;6247775;28;20046;-74
2021/05/04 12:49:03;;;;;;;2.03;1.35;;;15.30;52.60;;;;;;6247518;28;20148;-74
2021/05/04 12:52:08;;;;;;;3.47;0.82;;;15.30;52.20;;;;;;6247624;28;20041;-74
2021/05/04 12:55:10;;;;;;;3.08;1.77;;;15.30;51.90;;;;;;6247817;28;20060;-74
2021/05/04 12:58:13;;;;;;;1.40;1.30;;;15.20;52.10;;;;;;6247475;28;20041;-75
2021/05/04 13:01:14;;;;;;;3.60;1.73;;;15.30;52.40;;;;;;6247099;28;20514;-73
2021/05/04 13:04:37;;;;;;;2.80;2.58;;;15.30;52.00;;;;;;6247586;28;20145;-78
2021/05/04 13:07:43;;;;;;;1.42;1.33;;;15.20;52.10;;;;;;6247888;28;20107;-74
2021/05/04 13:10:53;;;;;;;3.50;2.33;;;15.10;52.40;;;;;;6246331;28;20056;-74
2021/05/04 13:14:03;;;;;;;0.90;0.90;;;15.20;52.30;;;;;;6260084;28;20084;-76
2021/05/04 13:21:11;;;;;;;1.77;1.67;;;15.20;51.90;;;;;;6245699;28;20403;-75
2021/05/04 13:30:56;;;;;;;1.90;1.63;;;15.20;52.70;;;;;;6247000;28;20049;-74
2021/05/04 13:33:58;;;;;;;1.40;1.30;;;15.20;53.80;;;;;;6246647;28;20133;-74
2021/05/04 13:37:01;;;;;;;2.08;1.92;;;15.20;54.20;;;;;;6246726;28;20049;-74
2021/05/04 13:40:20;;;;;;;1.90;1.40;;;15.10;55.20;;;;;;6246605;28;20053;-74
2021/05/04 13:50:01;;;;;;;2.00;1.80;;;15.40;57.30;;;;;;6246263;28;20041;-74
2021/05/04 13:53:04;;;;;;;6.28;5.57;;;15.30;56.70;;;;;;6246717;28;20048;-73
2021/05/04 13:56:05;;;;;;;8.55;2.95;;;15.40;57.90;;;;;;6246211;28;20132;-74
2021/05/04 13:59:06;;;;;;;2.80;2.60;;;15.50;57.60;;;;;;6246913;28;20056;-74
2021/05/04 14:02:12;;;;;;;5.55;2.10;;;15.60;57.50;;;;;;6246361;28;20072;-75
2021/05/04 14:05:27;;;;;;;4.53;3.95;;;15.80;57.10;;;;;;6247104;28;20051;-74
2021/05/04 14:16:09;;;;;;;5.78;1.95;;;15.70;57.30;;;;;;6269934;28;20049;-74
2021/05/04 14:28:49;;;;;;;2.50;1.80;;;14.60;62.60;;;;;;6270658;28;20140;-74
2021/05/04 14:31:50;;;;;;;3.05;2.75;;;14.40;64.40;;;;;;6275848;28;20131;-74
2021/05/04 14:34:54;;;;;;;8.35;7.13;;;14.30;65.90;;;;;;6276141;28;20076;-75
2021/05/04 14:38:10;;;;;;;3.17;2.38;;;14.20;66.10;;;;;;6275886;28;20095;-75
2021/05/04 14:41:28;;;;;;;5.75;3.60;;;14.10;67.90;;;;;;6275458;28;20057;-75
2021/05/04 14:44:46;;;;;;;9.10;2.38;;;14.10;68.40;;;;;;6275766;28;20045;-74
2021/05/04 14:48:00;;;;;;;39.58;33.13;;;14.10;67.80;;;;;;6275205;28;20048;-74
2021/05/04 14:57:56;;;;;;;3.72;2.75;;;13.80;70.90;;;;;;6275246;28;20041;-74
2021/05/04 15:01:03;;;;;;;2.40;2.13;;;13.70;71.70;;;;;;6274825;28;20044;-74
2021/05/04 15:04:05;;;;;;;3.15;2.85;;;13.60;72.20;;;;;;6274942;28;20405;-74
2021/05/04 15:07:06;;;;;;;2.50;2.25;;;13.70;73.00;;;;;;6275625;28;20080;-74
2021/05/04 15:10:08;;;;;;;2.42;2.17;;;13.60;74.40;;;;;;6274576;28;20431;-74
2021/05/04 15:13:14;;;;;;;4.93;2.30;;;13.50;75.50;;;;;;6274709;28;20045;-74
2021/05/04 15:16:22;;;;;;;13.85;11.77;;;13.40;76.10;;;;;;6281523;22;20040;-74
2021/05/04 15:22:43;;;;;;;5.35;3.33;;;13.30;78.90;;;;;;6262355;28;20449;-75
2021/05/04 15:25:44;;;;;;;8.85;7.75;;;13.20;79.70;;;;;;6249505;28;20088;-75
2021/05/04 15:28:47;;;;;;;3.63;3.33;;;13.20;79.90;;;;;;6249519;28;20080;-74
2021/05/04 15:31:51;;;;;;;3.40;2.90;;;13.00;81.60;;;;;;6248662;28;20149;-74
2021/05/04 15:34:52;;;;;;;3.83;2.80;;;12.80;81.80;;;;;;6249833;28;20056;-74
2021/05/04 15:37:54;;;;;;;4.07;2.85;;;12.70;83.30;;;;;;6249466;28;20765;-74
2021/05/04 15:40:55;;;;;;;3.25;2.90;;;12.60;83.80;;;;;;6248974;28;20195;-74
2021/05/04 15:43:57;;;;;;;14.27;3.95;;;12.50;84.30;;;;;;6249251;28;20072;-75
2021/05/04 15:47:12;;;;;;;3.20;2.90;;;12.30;86.60;;;;;;6249547;28;20156;-75
2021/05/04 15:50:24;;;;;;;3.20;2.85;;;12.30;88.30;;;;;;6248607;28;20087;-74
2021/05/04 15:53:43;;;;;;;5.97;3.67;;;12.30;90.10;;;;;;6249130;28;20172;-74
2021/05/04 16:06:46;;;;;;;7.18;5.95;;;12.30;93.00;;;;;;6245195;28;20145;-74
2021/05/04 16:09:48;;;;;;;5.65;4.80;;;12.20;93.50;;;;;;6248252;28;20140;-75
2021/05/04 16:12:50;;;;;;;4.05;3.70;;;12.20;94.60;;;;;;6252816;28;20135;-75
2021/05/04 16:15:52;;;;;;;3.60;3.30;;;12.30;95.00;;;;;;6272639;28;20080;-75
2021/05/04 16:18:58;;;;;;;4.47;4.07;;;12.40;94.90;;;;;;6273420;28;20130;-76
2021/05/04 16:22:01;;;;;;;3.38;3.08;;;12.40;95.60;;;;;;6260384;28;20124;-74
2021/05/04 16:25:08;;;;;;;10.73;4.35;;;12.40;95.30;;;;;;6248040;28;20132;-75
2021/05/04 16:28:16;;;;;;;4.97;4.50;;;12.30;96.30;;;;;;6248244;28;20065;-75
2021/05/04 16:31:18;;;;;;;8.77;7.78;;;12.30;96.60;;;;;;6248306;28;20426;-75
2021/05/04 16:34:19;;;;;;;4.32;3.92;;;12.40;97.80;;;;;;6248113;28;20124;-75
2021/05/04 16:37:26;;;;;;;3.83;3.42;;;12.40;96.50;;;;;;6248167;28;20056;-75
2021/05/04 16:40:28;;;;;;;4.50;4.10;;;12.40;96.40;;;;;;6247839;28;20046;-75
2021/05/04 16:43:30;;;;;;;4.18;3.85;;;12.30;96.60;;;;;;6248607;28;20052;-75
2021/05/04 16:46:54;;;;;;;4.30;3.85;;;12.20;97.10;;;;;;6247760;28;20455;-75
2021/05/04 16:49:56;;;;;;;4.90;4.35;;;12.20;97.30;;;;;;6247706;28;20049;-76
2021/05/04 16:52:57;;;;;;;5.72;5.22;;;12.00;97.90;;;;;;6247604;28;20132;-76
2021/05/04 16:55:58;;;;;;;4.78;4.38;;;12.00;98.50;;;;;;6248010;28;20140;-76